createdAt,value
2018-10-11T00:01:54.507Z,71.00
2018-10-11T00:04:23.307Z,71.00
2018-10-11T00:06:52.108Z,71.20
2018-10-11T00:09:20.872Z,70.60
2018-10-11T00:11:49.692Z,70.00
2018-10-11T00:14:18.492Z,70.00
2018-10-11T00:16:47.339Z,69.70
2018-10-11T00:19:16.149Z,69.40
2018-10-11T00:21:44.972Z,69.40
2018-10-11T00:24:13.731Z,69.50
2018-10-11T00:26:42.557Z,69.40
2018-10-11T00:29:11.396Z,69.10
2018-10-11T00:31:40.154Z,69.20
2018-10-11T00:34:08.936Z,69.50
2018-10-11T00:36:37.739Z,69.60
2018-10-11T00:39:07.836Z,70.20
2018-10-11T00:41:36.688Z,70.60
2018-10-11T00:44:05.544Z,70.90
2018-10-11T00:46:34.318Z,72.00
2018-10-11T00:49:03.061Z,72.00
2018-10-11T00:51:31.871Z,73.10
2018-10-11T00:54:00.699Z,73.00
2018-10-11T00:56:29.463Z,73.20
2018-10-11T00:58:58.311Z,73.60
2018-10-11T01:01:27.087Z,72.10
2018-10-11T01:03:55.872Z,72.20
2018-10-11T01:06:24.726Z,72.00
2018-10-11T01:08:53.480Z,72.40
2018-10-11T01:11:22.362Z,72.50
2018-10-11T01:13:51.151Z,72.80
2018-10-11T01:16:19.959Z,73.50
2018-10-11T01:18:48.791Z,73.20
2018-10-11T01:21:17.552Z,72.70
2018-10-11T01:23:46.362Z,72.70
2018-10-11T01:26:15.187Z,73.10
2018-10-11T01:28:43.955Z,73.60
2018-10-11T01:31:18.030Z,73.70
2018-10-11T01:33:46.808Z,73.40
2018-10-11T01:36:15.611Z,72.60
2018-10-11T01:38:44.685Z,72.10
2018-10-11T01:41:13.708Z,72.50
2018-10-11T01:43:42.600Z,72.30
2018-10-11T01:46:11.445Z,72.30
2018-10-11T01:48:40.308Z,72.70
2018-10-11T01:51:09.619Z,72.80
2018-10-11T01:53:38.518Z,73.10
2018-10-11T01:56:07.529Z,72.70
2018-10-11T01:58:36.327Z,72.80
2018-10-11T02:01:05.136Z,72.30
2018-10-11T02:03:33.927Z,71.90
2018-10-11T02:06:02.726Z,71.20
2018-10-11T02:08:31.538Z,72.10
2018-10-11T02:11:00.373Z,71.30
2018-10-11T02:13:29.223Z,71.70
2018-10-11T02:15:58.035Z,71.80
2018-10-11T02:18:26.836Z,72.00
2018-10-11T02:20:55.664Z,72.20
2018-10-11T02:23:24.472Z,71.60
2018-10-11T02:25:53.251Z,71.80
2018-10-11T02:28:22.044Z,72.10
2018-10-11T02:30:50.861Z,72.20
2018-10-11T02:33:19.678Z,72.00
2018-10-11T02:35:48.451Z,71.70
2018-10-11T02:38:18.334Z,71.50
2018-10-11T02:40:47.168Z,71.90
2018-10-11T02:43:16.001Z,72.00
2018-10-11T02:45:44.832Z,72.50
2018-10-11T02:48:13.620Z,72.60
2018-10-11T02:50:42.384Z,72.70
2018-10-11T02:53:11.199Z,72.80
2018-10-11T02:55:40.140Z,72.70
2018-10-11T02:58:19.932Z,72.00
2018-10-11T03:00:48.896Z,72.70
2018-10-11T03:03:22.394Z,73.80
2018-10-11T03:05:51.619Z,73.50
2018-10-11T03:08:22.741Z,73.90
2018-10-11T03:10:51.709Z,73.90
2018-10-11T03:13:20.570Z,74.10
2018-10-11T03:15:49.412Z,74.10
2018-10-11T03:18:18.235Z,74.30
2018-10-11T03:20:47.043Z,74.40
2018-10-11T03:23:16.180Z,74.20
2018-10-11T03:25:45.927Z,74.10
2018-10-11T03:28:16.058Z,73.40
2018-10-11T03:30:44.966Z,74.00
2018-10-11T03:33:14.617Z,73.90
2018-10-11T03:35:44.249Z,74.00
2018-10-11T03:38:13.309Z,74.20
2018-10-11T03:40:42.307Z,74.30
2018-10-11T03:43:11.134Z,74.60
2018-10-11T03:45:39.956Z,74.60
2018-10-11T03:48:08.969Z,74.40
2018-10-11T03:50:37.779Z,74.80
2018-10-11T03:53:06.890Z,74.90
2018-10-11T03:55:35.748Z,74.30
2018-10-11T03:58:04.552Z,74.40
2018-10-11T04:00:33.413Z,75.00
2018-10-11T04:03:02.314Z,73.80
2018-10-11T04:05:31.152Z,74.30
2018-10-11T04:07:59.953Z,74.80
2018-10-11T04:10:28.730Z,74.70
2018-10-11T04:12:57.533Z,74.20
2018-10-11T04:15:26.413Z,75.30
2018-10-11T04:17:55.255Z,76.10
2018-10-11T04:20:24.241Z,76.50
2018-10-11T04:22:53.014Z,77.30
2018-10-11T04:25:21.792Z,77.50
2018-10-11T04:27:50.613Z,77.10
2018-10-11T04:30:19.444Z,77.40
2018-10-11T04:32:48.233Z,77.50
2018-10-11T04:35:17.120Z,76.70
2018-10-11T04:37:45.947Z,77.80
2018-10-11T04:40:14.876Z,77.50
2018-10-11T04:42:43.851Z,76.30
2018-10-11T04:45:12.668Z,76.40
2018-10-11T04:47:41.513Z,76.70
2018-10-11T04:50:10.611Z,79.10
2018-10-11T04:52:39.476Z,79.10
2018-10-11T04:55:08.352Z,78.90
2018-10-11T04:57:37.137Z,79.20
2018-10-11T05:00:06.067Z,79.30
2018-10-11T05:02:34.858Z,79.00
2018-10-11T05:05:03.697Z,79.90
2018-10-11T05:07:32.499Z,79.50
2018-10-11T05:10:01.259Z,81.20
2018-10-11T05:12:30.177Z,79.30
2018-10-11T05:14:59.491Z,79.60
2018-10-11T05:17:28.487Z,79.50
2018-10-11T05:19:57.331Z,79.80
2018-10-11T05:22:26.233Z,79.60
2018-10-11T05:24:55.063Z,80.10
2018-10-11T05:27:23.892Z,80.20
2018-10-11T05:29:52.711Z,81.00
2018-10-11T05:32:21.930Z,81.60
2018-10-11T05:34:50.772Z,81.00
2018-10-11T05:37:19.571Z,79.80
2018-10-11T05:39:48.443Z,79.80
2018-10-11T05:42:17.313Z,80.40
2018-10-11T05:44:46.224Z,80.80
2018-10-11T05:47:15.134Z,80.40
2018-10-11T05:49:44.593Z,81.40
2018-10-11T05:52:13.925Z,81.30
2018-10-11T05:54:42.853Z,81.00
2018-10-11T05:57:11.818Z,80.30
2018-10-11T05:59:40.709Z,80.50
2018-10-11T06:02:09.651Z,80.30
2018-10-11T06:04:38.530Z,80.80
2018-10-11T06:07:07.469Z,81.40
2018-10-11T06:09:36.337Z,81.50
2018-10-11T06:12:05.219Z,81.70
2018-10-11T06:14:34.129Z,80.40
2018-10-11T06:17:02.980Z,81.50
2018-10-11T06:19:31.843Z,80.40
2018-10-11T06:22:00.764Z,78.90
2018-10-11T06:24:29.584Z,78.30
2018-10-11T06:26:58.448Z,79.90
2018-10-11T06:29:27.490Z,79.40
2018-10-11T06:31:56.445Z,80.20
2018-10-11T06:34:25.405Z,80.70
2018-10-11T06:36:54.981Z,80.30
2018-10-11T06:39:23.915Z,80.40
2018-10-11T06:41:52.883Z,81.50
2018-10-11T06:44:21.780Z,81.60
2018-10-11T06:46:50.707Z,81.30
2018-10-11T06:49:19.581Z,82.10
2018-10-11T06:51:48.551Z,82.20
2018-10-11T06:54:17.890Z,81.70
2018-10-11T06:56:46.673Z,82.10
2018-10-11T06:59:15.503Z,81.00
2018-10-11T07:01:44.363Z,81.00
2018-10-11T07:04:13.145Z,80.40
2018-10-11T07:06:42.026Z,81.80
2018-10-11T07:09:10.853Z,82.00
2018-10-11T07:11:39.648Z,80.30
2018-10-11T07:14:08.494Z,81.20
2018-10-11T07:16:37.273Z,81.50
2018-10-11T07:19:06.127Z,82.60
2018-10-11T07:21:34.937Z,82.20
2018-10-11T07:24:03.717Z,81.60
2018-10-11T07:26:32.532Z,82.50
2018-10-11T07:29:01.343Z,81.00
2018-10-11T07:31:30.197Z,81.80
2018-10-11T07:33:58.992Z,81.70
2018-10-11T07:36:27.833Z,82.20
2018-10-11T07:38:56.632Z,81.60
2018-10-11T07:41:25.481Z,81.80
2018-10-11T07:43:54.352Z,80.70
2018-10-11T07:46:23.163Z,81.40
2018-10-11T07:48:52.011Z,81.50
2018-10-11T07:51:20.822Z,81.70
2018-10-11T07:53:49.629Z,81.60
2018-10-11T07:56:18.479Z,82.10
2018-10-11T07:58:47.276Z,81.70
2018-10-11T08:01:16.227Z,81.60
2018-10-11T08:03:45.005Z,81.80
2018-10-11T08:06:13.800Z,81.00
2018-10-11T08:08:42.664Z,80.80
2018-10-11T08:11:11.636Z,81.10
2018-10-11T08:13:40.427Z,80.50
2018-10-11T08:16:09.431Z,80.00
2018-10-11T08:18:38.279Z,80.80
2018-10-11T08:21:07.044Z,81.00
2018-10-11T08:23:36.011Z,80.80
2018-10-11T08:26:05.145Z,79.70
2018-10-11T08:28:33.812Z,80.20
2018-10-11T08:31:02.633Z,80.10
2018-10-11T08:33:31.435Z,79.00
2018-10-11T08:36:00.362Z,78.90
2018-10-11T08:38:29.226Z,78.70
2018-10-11T08:40:58.024Z,78.40
2018-10-11T08:43:27.138Z,78.60
2018-10-11T08:45:56.017Z,78.30
2018-10-11T08:48:24.824Z,79.10
2018-10-11T08:50:53.691Z,79.00
2018-10-11T08:53:22.478Z,79.30
2018-10-11T08:55:51.345Z,79.00
2018-10-11T08:58:20.216Z,79.90
2018-10-11T09:00:49.052Z,79.60
2018-10-11T09:03:17.907Z,79.60
2018-10-11T09:05:46.691Z,79.20
2018-10-11T09:08:15.455Z,80.30
2018-10-11T09:10:44.307Z,80.20
2018-10-11T09:13:13.118Z,80.10
2018-10-11T09:15:42.013Z,82.30
2018-10-11T09:18:10.821Z,83.10
2018-10-11T09:20:39.637Z,83.20
2018-10-11T09:23:08.514Z,83.10
2018-10-11T09:25:37.645Z,83.90
2018-10-11T09:28:06.389Z,83.40
2018-10-11T09:30:35.229Z,83.90
2018-10-11T09:33:04.060Z,83.80
2018-10-11T09:35:32.972Z,83.20
2018-10-11T09:38:01.749Z,82.70
2018-10-11T09:40:30.586Z,83.50
2018-10-11T09:42:59.420Z,83.90
2018-10-11T09:45:28.259Z,82.80
2018-10-11T09:47:57.095Z,83.00
2018-10-11T09:50:25.898Z,81.70
2018-10-11T09:52:54.714Z,82.00
2018-10-11T09:55:23.525Z,81.70
2018-10-11T09:57:52.365Z,82.50
2018-10-11T10:00:26.459Z,81.60
2018-10-11T10:02:55.243Z,80.20
2018-10-11T10:05:24.105Z,80.00
2018-10-11T10:07:52.956Z,80.60
2018-10-11T10:10:21.824Z,80.10
2018-10-11T10:12:50.643Z,79.50
2018-10-11T10:15:19.484Z,79.60
2018-10-11T10:17:48.304Z,79.60
2018-10-11T10:20:17.140Z,78.90
2018-10-11T10:22:45.899Z,79.00
2018-10-11T10:25:21.364Z,79.70
2018-10-11T10:27:50.159Z,79.30
2018-10-11T10:30:24.289Z,77.90
2018-10-11T10:32:53.067Z,77.70
2018-10-11T10:35:21.894Z,76.90
2018-10-11T10:37:50.698Z,75.60
2018-10-11T10:40:19.497Z,74.30
2018-10-11T10:42:48.341Z,74.00
2018-10-11T10:45:17.157Z,73.60
2018-10-11T10:47:45.973Z,72.50
2018-10-11T10:50:14.825Z,72.90
2018-10-11T10:52:43.588Z,73.00
2018-10-11T10:55:12.472Z,72.80
2018-10-11T10:57:41.272Z,71.10
2018-10-11T11:00:10.200Z,71.00
2018-10-11T11:02:39.017Z,70.60
2018-10-11T11:05:07.851Z,70.90
2018-10-11T11:07:36.713Z,70.80
2018-10-11T11:10:05.941Z,70.60
2018-10-11T11:12:34.732Z,70.50
2018-10-11T11:15:03.625Z,70.70
2018-10-11T11:17:32.410Z,69.80
2018-10-11T11:20:01.243Z,69.80
2018-10-11T11:22:30.057Z,69.20
2018-10-11T11:24:58.877Z,68.60
2018-10-11T11:27:27.708Z,68.20
2018-10-11T11:29:56.538Z,68.10
2018-10-11T11:32:25.359Z,67.30
2018-10-11T11:34:54.163Z,68.10
2018-10-11T11:37:22.964Z,66.90
2018-10-11T11:39:51.839Z,66.50
2018-10-11T11:42:20.629Z,66.50
2018-10-11T11:44:49.457Z,65.70
2018-10-11T11:47:18.255Z,65.70
2018-10-11T11:49:47.059Z,65.00
2018-10-11T11:52:15.835Z,64.50
2018-10-11T11:54:44.619Z,64.60
2018-10-11T11:57:13.450Z,64.60
2018-10-11T11:59:42.291Z,65.10
2018-10-11T12:02:11.138Z,63.70
2018-10-11T12:04:39.963Z,63.70
2018-10-11T12:07:08.763Z,63.10
2018-10-11T12:09:37.595Z,63.50
2018-10-11T12:12:06.438Z,63.00
2018-10-11T12:14:35.278Z,62.70
2018-10-11T12:17:04.106Z,62.60
2018-10-11T12:19:32.895Z,61.80
2018-10-11T12:22:01.763Z,62.20
2018-10-11T12:24:30.549Z,61.70
2018-10-11T12:26:59.386Z,61.30
2018-10-11T12:29:28.173Z,61.40
2018-10-11T12:31:56.992Z,61.60
2018-10-11T12:34:25.864Z,60.90
2018-10-11T12:36:54.661Z,60.70
2018-10-11T12:39:23.476Z,61.00
2018-10-11T12:41:52.275Z,60.70
2018-10-11T12:44:21.080Z,60.20
2018-10-11T12:46:49.950Z,61.30
2018-10-11T12:49:18.813Z,59.60
2018-10-11T12:51:47.599Z,59.40
2018-10-11T12:54:16.480Z,59.10
2018-10-11T12:56:45.356Z,59.10
2018-10-11T12:59:14.119Z,59.50
2018-10-11T13:01:42.891Z,59.10
2018-10-11T13:04:11.664Z,58.60
2018-10-11T13:06:40.451Z,58.90
2018-10-11T13:09:09.484Z,58.50
2018-10-11T13:11:38.299Z,59.70
2018-10-11T13:14:07.177Z,57.60
2018-10-11T13:16:35.951Z,58.70
2018-10-11T13:19:04.768Z,57.90
2018-10-11T13:21:33.588Z,57.90
2018-10-11T13:24:02.423Z,57.70
2018-10-11T13:26:31.243Z,57.80
2018-10-11T13:29:00.166Z,57.60
2018-10-11T13:31:28.892Z,56.80
2018-10-11T13:33:57.666Z,57.20
2018-10-11T13:36:26.487Z,56.60
2018-10-11T13:38:55.311Z,57.10
2018-10-11T13:41:24.195Z,57.10
2018-10-11T13:43:52.979Z,56.10
2018-10-11T13:46:21.797Z,56.70
2018-10-11T13:48:50.592Z,56.50
2018-10-11T13:51:19.398Z,56.80
2018-10-11T13:53:53.129Z,56.60
2018-10-11T13:56:17.055Z,56.30
2018-10-11T13:58:45.935Z,56.60
2018-10-11T14:01:14.812Z,57.40
2018-10-11T14:03:43.828Z,56.60
2018-10-11T14:06:12.669Z,56.60
2018-10-11T14:08:41.502Z,56.40
2018-10-11T14:11:10.539Z,56.00
2018-10-11T14:13:39.968Z,56.00
2018-10-11T14:16:08.802Z,56.30
2018-10-11T14:18:38.283Z,56.20
2018-10-11T14:21:08.308Z,55.80
2018-10-11T14:23:37.851Z,56.20
2018-10-11T14:26:07.105Z,56.50
2018-10-11T14:28:35.904Z,56.40
2018-10-11T14:31:04.717Z,56.30
2018-10-11T14:33:33.503Z,56.10
2018-10-11T14:36:02.393Z,56.90
2018-10-11T14:38:31.245Z,56.90
2018-10-11T14:41:00.077Z,55.70
2018-10-11T14:43:28.906Z,56.10
2018-10-11T14:45:57.756Z,55.70
2018-10-11T14:48:26.563Z,55.40
2018-10-11T14:50:55.481Z,55.60
2018-10-11T14:53:24.257Z,54.90
2018-10-11T14:55:53.044Z,54.60
2018-10-11T14:58:21.954Z,55.00
2018-10-11T15:00:50.946Z,55.50
2018-10-11T15:03:20.058Z,55.00
2018-10-11T15:05:48.814Z,55.50
2018-10-11T15:08:17.646Z,55.20
2018-10-11T15:10:46.449Z,55.30
2018-10-11T15:13:15.255Z,55.30
2018-10-11T15:15:44.083Z,55.30
2018-10-11T15:18:12.871Z,55.60
2018-10-11T15:20:41.685Z,55.20
2018-10-11T15:23:10.499Z,55.20
2018-10-11T15:25:39.323Z,55.00
2018-10-11T15:28:08.164Z,55.10
2018-10-11T15:30:37.008Z,55.50
2018-10-11T15:33:05.903Z,55.90
2018-10-11T15:35:34.711Z,56.10
2018-10-11T15:38:03.594Z,56.30
2018-10-11T15:40:32.447Z,56.30
2018-10-11T15:43:01.237Z,56.00
2018-10-11T15:45:30.059Z,56.60
2018-10-11T15:47:58.912Z,56.80
2018-10-11T15:50:27.714Z,57.00
2018-10-11T15:52:56.494Z,57.10
2018-10-11T15:55:25.337Z,57.30
2018-10-11T15:57:54.163Z,57.40
2018-10-11T16:00:22.941Z,57.60
2018-10-11T16:02:51.720Z,57.80
2018-10-11T16:05:20.541Z,58.00
2018-10-11T16:07:49.441Z,57.90
2018-10-11T16:10:18.259Z,58.00
2018-10-11T16:12:47.071Z,58.10
2018-10-11T16:15:15.907Z,58.20
2018-10-11T16:17:44.782Z,58.30
2018-10-11T16:20:13.579Z,58.50
2018-10-11T16:22:42.417Z,58.60
2018-10-11T16:25:11.217Z,58.70
2018-10-11T16:27:40.057Z,58.70
2018-10-11T16:30:08.882Z,59.00
2018-10-11T16:32:37.737Z,59.00
2018-10-11T16:35:06.595Z,59.10
2018-10-11T16:37:35.439Z,58.90
2018-10-11T16:40:04.312Z,59.40
2018-10-11T16:42:33.164Z,59.40
2018-10-11T16:45:02.135Z,59.50
2018-10-11T16:47:31.029Z,59.80
2018-10-11T16:49:59.905Z,59.40
2018-10-11T16:52:28.713Z,59.90
2018-10-11T16:54:57.508Z,59.90
2018-10-11T16:57:26.413Z,59.80
2018-10-11T16:59:55.292Z,59.90
2018-10-11T17:02:24.160Z,59.70
2018-10-11T17:04:52.989Z,60.20
2018-10-11T17:07:21.760Z,60.40
2018-10-11T17:09:50.622Z,60.60
2018-10-11T17:12:19.460Z,60.80
2018-10-11T17:14:48.295Z,59.90
2018-10-11T17:17:17.118Z,60.90
2018-10-11T17:19:45.953Z,60.50
2018-10-11T17:22:14.828Z,60.60
2018-10-11T17:24:43.621Z,60.90
2018-10-11T17:27:12.461Z,60.90
2018-10-11T17:29:41.316Z,60.80
2018-10-11T17:32:10.131Z,60.90
2018-10-11T17:34:39.035Z,60.50
2018-10-11T17:37:07.914Z,61.00
2018-10-11T17:39:36.722Z,61.30
2018-10-11T17:42:05.624Z,61.10
2018-10-11T17:44:34.452Z,61.30
2018-10-11T17:47:03.279Z,61.80
2018-10-11T17:49:32.090Z,62.30
2018-10-11T17:52:00.893Z,62.60
2018-10-11T17:54:29.750Z,62.20
2018-10-11T17:56:58.564Z,62.30
2018-10-11T17:59:27.383Z,62.40
2018-10-11T18:01:56.213Z,62.30
2018-10-11T18:04:25.155Z,62.30
2018-10-11T18:06:53.929Z,62.30
2018-10-11T18:09:22.739Z,61.80
2018-10-11T18:11:51.553Z,62.10
2018-10-11T18:14:20.333Z,62.10
2018-10-11T18:16:49.163Z,62.60
2018-10-11T18:19:17.972Z,62.70
2018-10-11T18:21:46.843Z,63.40
2018-10-11T18:24:15.628Z,63.80
2018-10-11T18:26:44.469Z,64.10
2018-10-11T18:29:13.345Z,64.30
2018-10-11T18:31:42.141Z,64.40
2018-10-11T18:34:10.941Z,64.00
2018-10-11T18:36:39.722Z,64.30
2018-10-11T18:39:11.868Z,64.30
2018-10-11T18:41:41.126Z,64.40
2018-10-11T18:44:10.446Z,63.90
2018-10-11T18:46:39.273Z,63.90
2018-10-11T18:49:08.558Z,63.70
2018-10-11T18:51:37.437Z,63.80
2018-10-11T18:54:10.724Z,63.90
2018-10-11T18:56:39.545Z,64.00
2018-10-11T18:59:08.380Z,63.90
2018-10-11T19:01:37.177Z,63.80
2018-10-11T19:04:06.020Z,63.90
2018-10-11T19:06:34.967Z,64.00
2018-10-11T19:09:04.542Z,64.00
2018-10-11T19:11:33.393Z,64.80
2018-10-11T19:14:02.208Z,64.40
2018-10-11T19:16:31.133Z,64.60
2018-10-11T19:19:00.103Z,64.80
2018-10-11T19:21:29.150Z,65.10
2018-10-11T19:23:57.959Z,65.10
2018-10-11T19:26:26.913Z,65.30
2018-10-11T19:28:55.716Z,65.10
2018-10-11T19:31:24.591Z,64.80
2018-10-11T19:33:53.421Z,65.40
2018-10-11T19:36:22.223Z,65.50
2018-10-11T19:38:51.045Z,65.30
2018-10-11T19:41:19.840Z,65.40
2018-10-11T19:43:49.653Z,65.60
2018-10-11T19:46:18.461Z,65.60
2018-10-11T19:48:47.290Z,65.60
2018-10-11T19:51:16.140Z,64.70
2018-10-11T19:53:46.059Z,64.60
2018-10-11T19:56:15.533Z,65.00
2018-10-11T19:58:44.304Z,65.80
2018-10-11T20:01:13.939Z,65.80
2018-10-11T20:03:43.421Z,65.70
2018-10-11T20:06:12.326Z,66.30
2018-10-11T20:08:41.265Z,66.80
2018-10-11T20:11:09.992Z,66.70
2018-10-11T20:13:38.770Z,66.20
2018-10-11T20:16:07.588Z,66.40
2018-10-11T20:18:36.865Z,66.10
2018-10-11T20:21:07.448Z,65.70
2018-10-11T20:23:40.519Z,65.80
2018-10-11T20:26:13.316Z,65.90
2018-10-11T20:28:46.806Z,66.20
2018-10-11T20:31:19.664Z,66.00
2018-10-11T20:33:48.611Z,66.00
2018-10-11T20:36:17.484Z,66.00
2018-10-11T20:38:46.315Z,65.90
2018-10-11T20:41:15.144Z,66.30
2018-10-11T20:43:44.039Z,66.40
2018-10-11T20:46:12.947Z,66.90
2018-10-11T20:48:41.744Z,66.70
2018-10-11T20:51:10.597Z,66.30
2018-10-11T20:53:39.413Z,66.30
2018-10-11T20:58:01.787Z,66.30
2018-10-11T21:00:30.701Z,66.10
2018-10-11T21:03:00.610Z,66.20
2018-10-11T21:05:29.432Z,66.40
2018-10-11T21:07:58.199Z,66.60
2018-10-11T21:10:26.981Z,66.40
2018-10-11T21:12:55.801Z,66.00
2018-10-11T21:15:24.658Z,66.70
2018-10-11T21:17:53.454Z,67.10
2018-10-11T21:20:22.378Z,66.90
2018-10-11T21:22:51.179Z,66.90
2018-10-11T21:25:20.734Z,67.00
2018-10-11T21:27:49.589Z,66.90
2018-10-11T21:30:18.389Z,66.70
2018-10-11T21:32:47.172Z,67.00
2018-10-11T21:35:15.984Z,66.90
2018-10-11T21:37:44.784Z,66.70
2018-10-11T21:40:13.717Z,66.80
2018-10-11T21:42:42.457Z,67.00
2018-10-11T21:45:11.275Z,67.30
2018-10-11T21:47:40.093Z,67.20
2018-10-11T21:50:08.983Z,67.50
2018-10-11T21:52:37.791Z,67.70
2018-10-11T21:55:06.666Z,67.80
2018-10-11T21:57:35.530Z,67.90
2018-10-11T22:00:04.730Z,68.00
2018-10-11T22:02:33.534Z,68.00
2018-10-11T22:05:02.305Z,67.90
2018-10-11T22:07:31.168Z,68.00
2018-10-11T22:09:59.963Z,68.00
2018-10-11T22:12:28.732Z,67.90
2018-10-11T22:14:57.626Z,68.00
2018-10-11T22:17:26.336Z,67.90
2018-10-11T22:19:55.147Z,67.80
2018-10-11T22:22:23.967Z,68.00
2018-10-11T22:24:52.809Z,68.40
2018-10-11T22:27:21.596Z,68.60
2018-10-11T22:29:50.407Z,68.60
2018-10-11T22:32:19.165Z,68.50
2018-10-11T22:34:47.978Z,68.70
2018-10-11T22:37:16.822Z,68.90
2018-10-11T22:39:45.638Z,68.90
2018-10-11T22:42:14.390Z,68.90
2018-10-11T22:44:43.289Z,68.50
2018-10-11T22:47:12.124Z,68.50
2018-10-11T22:49:40.950Z,67.50
2018-10-11T22:52:09.763Z,67.80
2018-10-11T22:54:38.677Z,67.80
2018-10-11T22:57:07.537Z,68.10
2018-10-11T22:59:36.346Z,67.90
2018-10-11T23:02:05.181Z,67.40
2018-10-11T23:04:33.984Z,67.90
2018-10-11T23:07:02.740Z,68.40
2018-10-11T23:09:31.558Z,69.00
2018-10-11T23:12:00.323Z,68.40
2018-10-11T23:14:29.269Z,69.10
2018-10-11T23:16:58.385Z,68.80
2018-10-11T23:19:27.366Z,68.80
2018-10-11T23:21:56.208Z,68.90
2018-10-11T23:24:25.336Z,69.20
2018-10-11T23:26:54.160Z,69.40
2018-10-11T23:29:23.013Z,69.60
2018-10-11T23:31:51.817Z,68.30
2018-10-11T23:34:20.585Z,68.60
2018-10-11T23:36:49.399Z,68.50
2018-10-11T23:39:18.224Z,68.60
2018-10-11T23:41:47.048Z,68.60
2018-10-11T23:44:15.840Z,69.10
2018-10-11T23:46:44.677Z,68.70
2018-10-11T23:49:13.456Z,69.00
2018-10-11T23:51:42.284Z,69.00
2018-10-11T23:54:11.028Z,69.80
2018-10-11T23:56:39.823Z,69.10
2018-10-11T23:59:08.614Z,68.80
